• Join FlightAware (Why Join?)
  • Login
  • US Flag 
05:46AM EST


 

Airport Tracker/Info


-or-


 

Live Flight TrackerFlight Track Log ✈ EGF3681 ✈ 01-Apr-2013 ✈ KOKC - KORD

Flight Track Log - Related Links

Times and Time Zones

All times are in EDT time to prevent confusion due to time zone crossing. See the EGF3681 flight status page for this flight to view local times or setup timezone preferences in your user account.

Time Position Orientation Groundspeed Altitude Reporting Facility
EDT Latitude Longitude Course Direction KTS MPH feet Rate Location/Type
03:25PM 35.4019 -97.6097 58° Northeast 138 159 2,100  Level Fort Worth Center
03:26PM 35.4500 -97.5994 10° North 203 234 3,700 2,040 Climbing Fort Worth Center
03:27PM 35.5456 -97.2487 60° Northeast  Level FlightAware Approximate
03:28PM 35.5970 -97.1292 66° East  Level FlightAware Approximate
03:28PM 35.5325 -97.4814 49° Northeast 279 321 8,000  Level Kansas City Center
03:29PM 35.6419 -97.0056 66° East  Level FlightAware Approximate
03:29PM 35.5578 -97.3792 73° East 303 349 10,800  Level Kansas City Center
03:30PM 35.6973 -96.8887 58° Northeast  Level FlightAware Approximate
03:30PM 35.5886 -97.2667 71° East 338 389 12,800  Level Kansas City Center
03:31PM 35.6367 -97.1533 62° Northeast 365 420 14,900 1,980 Climbing Kansas City Center
03:32PM 35.6869 -97.0322 63° Northeast 388 447 16,900 1,800 Climbing Kansas City Center
03:33PM 35.7389 -96.9058 63° Northeast 407 468 18,700 1,740 Climbing Kansas City Center
03:34PM 35.8039 -96.7483 63° Northeast 426 490 20,600 1,620 Climbing Kansas City Center
03:35PM 35.8608 -96.6103 63° Northeast 445 512 22,100 1,440 Climbing Kansas City Center
03:36PM 35.9192 -96.4692 63° Northeast 459 528 23,600 1,500 Climbing Kansas City Center
03:37PM 36.0064 -96.3358 51° Northeast 460 529 25,300 1,500 Climbing Kansas City Center
03:38PM 36.0967 -96.2219 46° Northeast 462 532 26,800 1,440 Climbing Kansas City Center
03:39PM 36.1858 -96.1086 46° Northeast 460 529 28,300 1,200 Climbing Kansas City Center
03:40PM 36.2758 -95.9922 46° Northeast 463 533 29,300 960 Climbing Kansas City Center
03:41PM 36.3683 -95.8736 46° Northeast 471 542 30,300 1,020 Climbing Kansas City Center
03:42PM 36.4683 -95.7439 46° Northeast 478 550 31,400 900 Climbing Kansas City Center
03:43PM 36.5625 -95.6231 46° Northeast 485 558 32,200 720 Climbing Kansas City Center
03:44PM 36.6544 -95.5028 46° Northeast 490 564 33,000 780 Climbing Kansas City Center
03:45PM 36.7497 -95.3775 46° Northeast 491 565 33,800 780 Climbing Kansas City Center
03:46PM 36.8450 -95.2528 46° Northeast 492 566 34,600 840 Climbing Kansas City Center
03:47PM 36.9583 -95.1031 47° Northeast 492 566 35,600 840 Climbing Kansas City Center
03:48PM 37.0519 -94.9794 46° Northeast 488 562 36,400 660 Climbing Kansas City Center
03:49PM 37.1450 -94.8561 47° Northeast 487 560 37,000 240 Climbing Kansas City Center
03:50PM 37.2408 -94.7325 46° Northeast 491 565 37,000  Level Kansas City Center
03:51PM 37.3358 -94.6036 47° Northeast 498 573 37,000  Level Kansas City Center
03:52PM 37.4317 -94.4742 47° Northeast 503 579 37,000  Level Kansas City Center
03:53PM 37.5258 -94.3506 46° Northeast 493 567 37,000  Level Kansas City Center
03:54PM 37.6192 -94.2236 47° Northeast 492 566 37,000  Level Kansas City Center
03:55PM 37.7278 -94.0758 47° Northeast 490 564 37,000  Level Kansas City Center
03:56PM 37.8203 -93.9486 47° Northeast 490 564 37,000  Level Kansas City Center
03:57PM 37.9139 -93.8208 47° Northeast 490 564 37,000  Level Kansas City Center
03:58PM 38.0064 -93.6936 47° Northeast 489 563 37,000  Level Kansas City Center
04:00PM 38.1003 -93.5650 47° Northeast 491 565 37,000  Level Kansas City Center
04:01PM 38.1936 -93.4347 48° Northeast 494 568 37,000  Level Kansas City Center
04:02PM 38.3042 -93.2794 48° Northeast 491 565 37,000  Level Kansas City Center
04:03PM 38.3986 -93.1483 47° Northeast 493 567 37,000  Level Kansas City Center
04:04PM 38.4936 -93.0147 48° Northeast 499 574 37,000  Level Kansas City Center
04:05PM 38.5867 -92.8833 48° Northeast 496 571 37,000  Level Kansas City Center
04:06PM 38.6792 -92.7511 48° Northeast 494 568 37,000  Level Kansas City Center
04:07PM 38.7711 -92.6214 48° Northeast 492 566 37,000  Level Kansas City Center
04:08PM 38.8653 -92.4878 48° Northeast 494 568 37,000  Level Kansas City Center
04:09PM 38.9586 -92.3525 48° Northeast 500 575 37,000  Level Kansas City Center
04:10PM 39.0525 -92.2178 48° Northeast 501 577 37,000  Level Kansas City Center
04:11PM 39.1608 -92.0539 50° Northeast 499 574 37,000  Level Kansas City Center
04:12PM 39.2439 -91.9064 54° Northeast 500 575 37,000  Level Kansas City Center
04:13PM 39.3314 -91.7928 45° Northeast 492 566 37,000  Level Kansas City Center
04:14PM 39.4439 -91.7608 12° North 431 496 37,000  Level Kansas City Center
04:15PM 39.5756 -91.7636 359° North 406 467 37,000  Level Kansas City Center
04:16PM 39.6808 -91.6936 27° Northeast 430 495 37,000 -180 Level Kansas City Center
04:17PM 39.7608 -91.5619 52° Northeast 469 540 36,700 -1,140 Descending Kansas City Center
04:18PM 39.8286 -91.4108 60° Northeast 485 558 34,700 -1,800 Descending Kansas City Center
04:19PM 39.8953 -91.2597 60° Northeast 487 560 33,100 -840 Descending Kansas City Center
04:20PM 39.9744 -91.0750 61° Northeast 491 565 33,000 -60 Descending Kansas City Center
04:21PM 40.0358 -90.9358 60° Northeast 498 573 33,000  Level Kansas City Center
04:22PM 40.1189 -90.7428 61° Northeast 505 581 33,000  Level Kansas City Center
04:22PM 40.1256 -90.7261 62° Northeast 506 582 33,000  Level Chicago Center
04:24PM 40.2161 -90.5686 53° Northeast 493 567 33,000  Level Chicago Center
04:25PM 40.3183 -90.4631 38° Northeast 469 540 33,000  Level Chicago Center
04:26PM 40.4197 -90.3586 38° Northeast 463 533 33,000  Level Chicago Center
04:27PM 40.5319 -90.2436 38° Northeast 478 550 33,000 -420 Level Chicago Center
04:28PM 40.6628 -90.1089 38° Northeast 496 571 32,200 -1,740 Descending Chicago Center
04:29PM 40.7708 -89.9975 38° Northeast 497 572 29,500 -2,700 Descending Chicago Center
04:30PM 40.8700 -89.8944 38° Northeast 475 547 26,700 -2,520 Descending Chicago Center
04:31PM 40.9653 -89.7922 39° Northeast 447 514 24,400 -1,320 Descending Chicago Center
04:32PM 41.0633 -89.6908 38° Northeast 433 498 24,000 -480 Descending Chicago Center
04:33PM 41.1567 -89.5892 39° Northeast 432 497 23,500 -780 Descending Chicago Center
04:34PM 41.2239 -89.4336 60° Northeast 475 547 22,500 -1,440 Descending Chicago Center
04:35PM 41.2850 -89.2811 62° Northeast 470 541 20,600 -2,280 Descending Chicago Center
04:36PM 41.3272 -89.1108 72° East 444 511 17,900 -1,800 Descending Chicago Center
04:37PM 41.3456 -88.9589 81° East 421 484 17,000 -1,500 Descending Chicago Center
04:38PM 41.3956 -88.8272 63° Northeast 409 471 14,800 -2,820 Descending Chicago Center
04:39PM 41.4731 -88.6997 51° Northeast 371 427 11,200 -1,800 Descending Chicago Center
04:40PM 41.5325 -88.5994 52° Northeast 346 398 11,100 -120 Descending Chicago Center
04:41PM 41.5917 -88.4956 53° Northeast 351 404 11,000  Descending Chicago Center
04:42PM 41.6519 -88.3928 52° Northeast 349 402 11,100  Climbing Chicago Center
04:43PM 41.7103 -88.2922 52° Northeast 343 395 11,000 -60 Descending Chicago Center
04:44PM 41.7703 -88.1911 51° Northeast 344 396 11,000 -300 Level Chicago Center
04:45PM 41.8253 -88.0944 53° Northeast 330 380 10,500 -960 Descending Chicago Center
04:46PM 41.8803 -87.9894 55° Northeast 287 330 9,100 -1,560 Descending Chicago Center
04:47PM 41.8833 -87.9167 87° East 289 333 7,800 -1,440 Descending Chicago TRACON
04:48PM 41.8833 -87.8000 90° East 243 280 6,600 -1,620 Descending Chicago TRACON
04:49PM 41.8833 -87.7333 90° East 229 264 4,600 -1,440 Descending Chicago TRACON
04:50PM 41.9167 -87.6833 48° Northeast 233 268 4,100 -600 Descending Chicago TRACON